CST,Max TemperatureF,Mean TemperatureF,Min TemperatureF,Max Dew PointF,MeanDew PointF,Min DewpointF,Max Humidity, Mean Humidity, Min Humidity, Max Sea Level PressureIn, Mean Sea Level PressureIn, Min Sea Level PressureIn, Max VisibilityMiles, Mean VisibilityMiles, Min VisibilityMiles, Max Wind SpeedMPH, Mean Wind SpeedMPH, Max Gust SpeedMPH,PrecipitationIn, CloudCover, Events, WindDirDegrees
2012-12-1,37,34,32,36,33,32,100,98,93,30.09,29.85,29.73,2,1,0,15,10,20,0.00,8,Fog,156
2012-12-2,35,34,33,36,33,32,100,97,93,29.98,29.91,29.81,4,1,0,14,6,18,0.00,8,Fog,144
2012-12-3,53,44,35,52,41,30,100,90,70,29.86,29.70,29.52,10,5,0,18,13,28,0.01,6,Fog-Rain,201
2012-12-4,37,27,17,30,17,10,81,66,47,30.36,30.11,29.84,10,10,10,20,12,28,0.00,0,,301
2012-12-5,33,24,14,19,14,10,86,65,48,30.40,30.20,29.92,10,10,10,22,8,28,0.00,3,,139
2012-12-6,42,33,24,36,28,19,93,77,56,29.95,29.83,29.74,10,10,10,20,13,25,0.00,5,Rain,240
2012-12-7,28,24,19,25,21,18,100,84,69,30.02,29.99,29.94,10,8,2,9,5,,0.00,4,Snow,334
2012-12-8,32,24,15,25,22,14,100,84,69,30.06,30.02,30.00,10,8,0,8,3,,0.00,3,Fog-Snow,113
2012-12-9,28,27,26,27,26,23,93,91,80,30.07,29.93,29.82,10,2,0,17,9,22,0.03,8,Snow,70
2012-12-10,26,12,-2,25,9,-6,93,85,73,29.88,29.85,29.81,10,7,0,18,9,22,0.00,6,Fog-Snow,294
2012-12-11,17,8,0,12,7,-4,93,87,79,29.99,29.83,29.74,10,6,0,10,3,,0.00,8,Fog-Snow,236
2012-12-12,35,16,-2,27,16,-6,100,82,65,30.01,29.93,29.85,10,7,0,16,4,20,0.00,5,Fog-Snow,159
2012-12-13,33,25,17,25,20,14,100,72,56,30.11,29.98,29.92,10,8,0,14,6,,0.00,2,Fog,199
2012-12-14,33,27,21,30,24,19,100,86,65,30.13,30.03,29.86,10,6,0,14,6,22,0.00,4,Fog,117
2012-12-15,35,34,32,34,32,30,100,94,87,29.85,29.62,29.50,7,3,0,13,8,20,0.15,8,Fog-Rain,120
2012-12-16,32,26,21,32,27,19,100,97,86,29.74,29.63,29.50,10,6,0,13,7,16,0.01,8,Fog-Rain-Snow,308
2012-12-17,21,20,19,19,18,18,93,89,86,29.74,29.71,29.68,10,10,7,13,6,12,0.00,8,,310
2012-12-18,28,22,15,23,19,14,100,89,74,29.80,29.69,29.64,10,8,4,7,1,,0.00,6,,99
2012-12-19,30,24,19,27,25,18,100,92,86,30.00,29.92,29.80,10,5,1,10,4,,0.00,8,,187
2012-12-20,28,20,12,27,20,9,93,86,79,29.95,29.83,29.73,10,4,2,26,12,33,0.00,7,Snow,346
2012-12-21,21,13,5,9,6,1,92,75,58,30.20,30.11,29.92,10,10,10,23,13,30,0.00,0,,317
2012-12-22,23,13,3,14,7,0,92,79,59,30.15,30.02,29.92,10,10,10,16,3,23,0.00,1,,231
2012-12-23,19,16,12,12,9,7,93,76,63,30.09,30.04,29.98,10,10,5,16,10,20,0.00,5,Snow,12
2012-12-24,17,10,3,9,4,-2,85,73,53,30.21,30.05,29.97,10,10,10,12,6,,0.00,4,,348
2012-12-25,14,5,-4,3,-3,-8,85,77,62,30.42,30.35,30.21,10,10,10,9,5,,0.00,0,,329
2012-12-26,17,6,-4,5,1,-8,92,77,58,30.35,30.27,30.21,10,10,10,6,2,,0.00,2,,6
2012-12-27,21,10,0,14,8,-4,92,79,68,30.23,30.18,30.12,10,10,7,6,1,,0.00,4,Snow,79
2012-12-28,21,16,10,18,14,9,93,86,74,30.12,30.03,29.96,10,6,0,7,4,,0.00,7,Fog-Snow,46
2012-12-29,19,14,8,18,11,5,93,87,79,30.10,30.01,29.96,10,8,0,13,4,,0.00,7,Fog-Snow,274
2012-12-30,17,8,0,12,6,-6,92,83,73,30.15,29.99,29.84,10,8,5,10,6,,0.00,1,Snow,172
2012-12-31,17,8,-2,14,2,-8,93,71,48,30.19,30.06,29.86,10,10,7,18,10,24,0.00,3,Snow,322